Time,TemperatureF,DewpointF,PressureIn,WindDirection,WindDirectionDegrees,WindSpeedMPH,WindSpeedGustMPH,Humidity,HourlyPrecipIn,Conditions,Clouds,dailyrainin,SoftwareType,DateUTC
2013-01-08 00:00:00,31.9,21.9,30.30,SE,143,0.0,6.0,66,0.00,,,0.00,VWS V14.01,2013-01-08 05:00:00,
2013-01-08 00:03:00,31.8,21.8,30.30,SE,143,0.0,6.0,66,0.00,,,0.00,VWS V14.01,2013-01-08 05:03:00,
2013-01-08 00:08:00,31.8,21.8,30.30,SE,143,0.0,6.0,66,0.00,,,0.00,VWS V14.01,2013-01-08 05:08:00,
2013-01-08 00:10:00,31.8,21.8,30.30,SE,143,0.0,6.0,66,0.00,,,0.00,VWS V14.01,2013-01-08 05:10:00,
2013-01-08 00:13:00,31.8,21.8,30.30,SE,143,1.0,6.0,66,0.00,,,0.00,VWS V14.01,2013-01-08 05:13:00,
2013-01-08 00:18:00,31.9,21.9,30.30,SE,143,0.0,6.0,66,0.00,,,0.00,VWS V14.01,2013-01-08 05:18:00,
2013-01-08 00:20:00,31.9,21.9,30.30,SE,143,1.0,6.0,66,0.00,,,0.00,VWS V14.01,2013-01-08 05:20:00,
2013-01-08 00:23:00,31.9,21.9,30.30,SE,143,1.0,6.0,66,0.00,,,0.00,VWS V14.01,2013-01-08 05:23:00,
2013-01-08 00:29:00,31.9,21.9,30.30,SE,143,0.0,6.0,66,0.00,,,0.00,VWS V14.01,2013-01-08 05:29:00,
2013-01-08 00:30:00,31.9,21.9,30.30,SE,143,2.0,6.0,66,0.00,,,0.00,VWS V14.01,2013-01-08 05:30:00,
2013-01-08 00:34:00,31.9,21.9,30.30,SE,143,1.0,6.0,66,0.00,,,0.00,VWS V14.01,2013-01-08 05:34:00,
2013-01-08 00:39:00,32.1,22.0,30.30,SE,143,1.0,6.0,66,0.00,,,0.00,VWS V14.01,2013-01-08 05:39:00,
2013-01-08 00:40:00,32.2,22.1,30.30,SE,143,0.0,6.0,66,0.00,,,0.00,VWS V14.01,2013-01-08 05:40:00,
2013-01-08 00:44:00,32.2,21.8,30.31,SE,143,2.0,6.0,65,0.00,,,0.00,VWS V14.01,2013-01-08 05:44:00,
2013-01-08 00:49:00,32.2,21.8,30.31,SE,143,0.0,6.0,65,0.00,,,0.00,VWS V14.01,2013-01-08 05:49:00,
2013-01-08 00:50:00,32.2,22.1,30.31,SE,143,0.0,6.0,66,0.00,,,0.00,VWS V14.01,2013-01-08 05:50:00,
2013-01-08 00:54:00,32.2,22.1,30.31,SE,143,0.0,6.0,66,0.00,,,0.00,VWS V14.01,2013-01-08 05:54:00,
2013-01-08 00:59:00,32.2,22.1,30.32,SE,143,0.0,6.0,66,0.00,,,0.00,VWS V14.01,2013-01-08 05:59:00,
2013-01-08 01:00:00,32.2,22.1,30.32,SE,143,0.0,6.0,66,0.00,,,0.00,VWS V14.01,2013-01-08 06:00:00,
2013-01-08 01:04:00,32.2,22.1,30.32,SE,143,0.0,6.0,66,0.00,,,0.00,VWS V14.01,2013-01-08 06:04:00,
2013-01-08 01:09:00,32.2,22.1,30.32,SE,143,0.0,6.0,66,0.00,,,0.00,VWS V14.01,2013-01-08 06:09:00,
2013-01-08 01:10:00,32.2,22.1,30.32,SE,143,0.0,6.0,66,0.00,,,0.00,VWS V14.01,2013-01-08 06:10:00,
2013-01-08 01:14:00,32.2,22.5,30.32,SE,143,0.0,6.0,67,0.00,,,0.00,VWS V14.01,2013-01-08 06:14:00,
2013-01-08 01:19:00,32.5,22.4,30.32,SSE,163,0.0,6.0,66,0.00,,,0.00,VWS V14.01,2013-01-08 06:19:00,
2013-01-08 01:20:00,32.5,22.4,30.32,SSE,163,1.0,6.0,66,0.00,,,0.00,VWS V14.01,2013-01-08 06:20:00,
2013-01-08 01:24:00,32.8,22.7,30.32,SSE,163,0.0,6.0,66,0.00,,,0.00,VWS V14.01,2013-01-08 06:24:00,
2013-01-08 01:29:00,32.9,22.8,30.33,South,175,1.0,6.0,66,0.00,,,0.00,VWS V14.01,2013-01-08 06:29:00,
2013-01-08 01:30:00,32.9,22.8,30.33,SSW,202,2.0,6.0,66,0.00,,,0.00,VWS V14.01,2013-01-08 06:30:00,
2013-01-08 01:34:00,33.1,23.0,30.33,South,175,1.0,6.0,66,0.00,,,0.00,VWS V14.01,2013-01-08 06:34:00,
2013-01-08 01:39:00,33.2,22.7,30.33,South,171,0.0,6.0,65,0.00,,,0.00,VWS V14.01,2013-01-08 06:39:00,
2013-01-08 01:40:00,33.2,22.7,30.33,South,171,0.0,6.0,65,0.00,,,0.00,VWS V14.01,2013-01-08 06:40:00,
2013-01-08 01:44:00,33.2,22.7,30.33,South,171,0.0,6.0,65,0.00,,,0.00,VWS V14.01,2013-01-08 06:44:00,
2013-01-08 01:49:00,33.2,22.7,30.33,South,171,0.0,6.0,65,0.00,,,0.00,VWS V14.01,2013-01-08 06:49:00,
2013-01-08 01:50:00,33.2,22.7,30.33,South,171,0.0,6.0,65,0.00,,,0.00,VWS V14.01,2013-01-08 06:50:00,
2013-01-08 01:54:00,33.2,23.1,30.33,SSW,195,0.0,6.0,66,0.00,,,0.00,VWS V14.01,2013-01-08 06:54:00,
2013-01-08 01:59:00,33.1,23.0,30.33,SSW,195,0.0,6.0,66,0.00,,,0.00,VWS V14.01,2013-01-08 06:59:00,
2013-01-08 02:00:00,33.1,23.0,30.33,SSW,195,0.0,6.0,66,0.00,,,0.00,VWS V14.01,2013-01-08 07:00:00,
2013-01-08 02:04:00,33.1,23.0,30.33,SSW,195,0.0,6.0,66,0.00,,,0.00,VWS V14.01,2013-01-08 07:04:00,
2013-01-08 02:09:00,32.9,22.8,30.33,SSW,195,0.0,6.0,66,0.00,,,0.00,VWS V14.01,2013-01-08 07:09:00,
2013-01-08 02:10:00,32.9,22.8,30.33,SSW,195,0.0,6.0,66,0.00,,,0.00,VWS V14.01,2013-01-08 07:10:00,
2013-01-08 02:14:00,32.9,22.8,30.33,SSW,195,0.0,6.0,66,0.00,,,0.00,VWS V14.01,2013-01-08 07:14:00,
2013-01-08 02:19:00,32.9,22.8,30.33,SSW,195,0.0,6.0,66,0.00,,,0.00,VWS V14.01,2013-01-08 07:19:00,
2013-01-08 02:20:00,32.9,22.8,30.33,SSW,195,0.0,6.0,66,0.00,,,0.00,VWS V14.01,2013-01-08 07:20:00,
2013-01-08 02:24:00,32.8,22.7,30.33,SSW,195,0.0,6.0,66,0.00,,,0.00,VWS V14.01,2013-01-08 07:24:00,
2013-01-08 02:29:00,32.7,23.0,30.33,SSW,195,0.0,6.0,67,0.00,,,0.00,VWS V14.01,2013-01-08 07:29:00,
2013-01-08 02:30:00,32.7,23.0,30.33,SSW,195,0.0,6.0,67,0.00,,,0.00,VWS V14.01,2013-01-08 07:30:00,
2013-01-08 02:34:00,32.5,22.8,30.33,SSW,195,0.0,6.0,67,0.00,,,0.00,VWS V14.01,2013-01-08 07:34:00,
2013-01-08 02:40:00,32.4,23.0,30.33,SSW,195,0.0,6.0,68,0.00,,,0.00,VWS V14.01,2013-01-08 07:40:00,
2013-01-08 02:54:00,31.9,22.5,30.33,SSW,195,0.0,6.0,68,0.00,,,0.00,VWS V14.01,2013-01-08 07:54:00,
2013-01-08 03:00:00,31.6,22.6,30.33,SSW,195,0.0,6.0,69,0.00,,,0.00,VWS V14.01,2013-01-08 08:00:00,
2013-01-08 03:09:00,31.9,22.9,30.33,SSW,195,1.0,6.0,69,0.00,,,0.00,VWS V14.01,2013-01-08 08:09:00,
2013-01-08 03:10:00,31.9,22.9,30.33,SSW,195,0.0,6.0,69,0.00,,,0.00,VWS V14.01,2013-01-08 08:10:00,
2013-01-08 03:14:00,32.1,23.1,30.33,SSW,195,0.0,6.0,69,0.00,,,0.00,VWS V14.01,2013-01-08 08:14:00,
2013-01-08 03:40:00,32.8,23.4,30.33,SSW,195,0.0,6.0,68,0.00,,,0.00,VWS V14.01,2013-01-08 08:40:00,
2013-01-08 03:44:00,32.4,22.7,30.33,SSW,195,0.0,6.0,67,0.00,,,0.00,VWS V14.01,2013-01-08 08:44:00,
2013-01-08 03:49:00,32.2,22.8,30.33,SSW,195,0.0,6.0,68,0.00,,,0.00,VWS V14.01,2013-01-08 08:49:00,
2013-01-08 03:54:00,32.1,22.8,30.33,SSW,195,0.0,6.0,68,0.00,,,0.00,VWS V14.01,2013-01-08 08:54:00,
2013-01-08 04:04:00,31.6,22.6,30.33,SSW,195,0.0,6.0,69,0.00,,,0.00,VWS V14.01,2013-01-08 09:04:00,
2013-01-08 04:09:00,31.6,22.6,30.33,SSW,195,0.0,6.0,69,0.00,,,0.00,VWS V14.01,2013-01-08 09:09:00,
2013-01-08 04:10:00,33.1,23.7,30.33,SSW,195,0.0,6.0,68,0.00,,,0.00,VWS V14.01,2013-01-08 09:10:00,
2013-01-08 04:20:00,33.1,23.7,30.33,SSW,195,0.0,6.0,68,0.00,,,0.00,VWS V14.01,2013-01-08 09:20:00,
2013-01-08 04:24:00,32.4,23.0,30.33,SSW,195,0.0,6.0,68,0.00,,,0.00,VWS V14.01,2013-01-08 09:24:00,
2013-01-08 04:29:00,32.5,23.1,30.33,SSW,195,0.0,6.0,68,0.00,,,0.00,VWS V14.01,2013-01-08 09:29:00,
2013-01-08 04:30:00,33.2,23.8,30.34,SSW,195,0.0,6.0,68,0.00,,,0.00,VWS V14.01,2013-01-08 09:30:00,
2013-01-08 04:34:00,32.7,23.3,30.33,SSW,195,0.0,6.0,68,0.00,,,0.00,VWS V14.01,2013-01-08 09:34:00,
2013-01-08 04:39:00,32.8,23.4,30.33,SSW,195,0.0,6.0,68,0.00,,,0.00,VWS V14.01,2013-01-08 09:39:00,
2013-01-08 04:49:00,32.9,23.5,30.33,SSW,195,0.0,6.0,68,0.00,,,0.00,VWS V14.01,2013-01-08 09:49:00,
2013-01-08 04:54:00,32.9,23.5,30.33,SSW,195,0.0,6.0,68,0.00,,,0.00,VWS V14.01,2013-01-08 09:54:00,
2013-01-08 04:55:00,33.4,24.0,30.33,SSW,195,1.0,6.0,68,0.00,,,0.00,VWS V14.01,2013-01-08 09:55:00,
2013-01-08 04:59:00,32.9,23.5,30.33,SSW,195,0.0,6.0,68,0.00,,,0.00,VWS V14.01,2013-01-08 09:59:00,
2013-01-08 05:04:00,32.9,23.5,30.33,SSW,195,0.0,6.0,68,0.00,,,0.00,VWS V14.01,2013-01-08 10:04:00,
2013-01-08 05:09:00,32.9,23.5,30.33,SSW,195,0.0,6.0,68,0.00,,,0.00,VWS V14.01,2013-01-08 10:09:00,
2013-01-08 05:15:00,33.5,24.1,30.34,SSW,195,0.0,6.0,68,0.00,,,0.00,VWS V14.01,2013-01-08 10:15:00,
2013-01-08 05:19:00,33.1,23.7,30.33,SSW,195,0.0,6.0,68,0.00,,,0.00,VWS V14.01,2013-01-08 10:19:00,
2013-01-08 05:24:00,33.1,23.7,30.33,SSW,195,0.0,6.0,68,0.00,,,0.00,VWS V14.01,2013-01-08 10:24:00,
2013-01-08 05:29:00,33.2,23.8,30.33,SSW,195,0.0,6.0,68,0.00,,,0.00,VWS V14.01,2013-01-08 10:29:00,
2013-01-08 05:34:00,33.2,23.8,30.34,SSW,195,0.0,6.0,68,0.00,,,0.00,VWS V14.01,2013-01-08 10:34:00,
2013-01-08 05:35:00,32.9,23.9,30.35,SSW,195,0.0,6.0,69,0.00,,,0.00,VWS V14.01,2013-01-08 10:35:00,
2013-01-08 05:39:00,33.2,23.8,30.34,SSW,195,0.0,6.0,68,0.00,,,0.00,VWS V14.01,2013-01-08 10:39:00,
2013-01-08 05:44:00,33.2,23.8,30.34,SSW,195,0.0,6.0,68,0.00,,,0.00,VWS V14.01,2013-01-08 10:44:00,
2013-01-08 05:49:00,33.2,23.8,30.33,SSW,195,0.0,6.0,68,0.00,,,0.00,VWS V14.01,2013-01-08 10:49:00,
2013-01-08 05:54:00,33.4,24.0,30.33,SSW,195,0.0,6.0,68,0.00,,,0.00,VWS V14.01,2013-01-08 10:54:00,
2013-01-08 06:04:00,33.4,24.0,30.34,SSW,195,0.0,6.0,68,0.00,,,0.00,VWS V14.01,2013-01-08 11:04:00,
2013-01-08 06:10:00,33.5,24.1,30.34,SSW,195,0.0,6.0,68,0.00,,,0.00,VWS V14.01,2013-01-08 11:10:00,
2013-01-08 06:15:00,33.5,24.1,30.34,SSW,195,0.0,6.0,68,0.00,,,0.00,VWS V14.01,2013-01-08 11:15:00,
2013-01-08 06:24:00,33.4,24.0,30.34,SSW,195,1.0,6.0,68,0.00,,,0.00,VWS V14.01,2013-01-08 11:24:00,
2013-01-08 06:30:00,33.2,23.8,30.34,SSW,195,0.0,6.0,68,0.00,,,0.00,VWS V14.01,2013-01-08 11:30:00,
2013-01-08 06:35:00,33.1,24.0,30.35,SSW,195,0.0,6.0,69,0.00,,,0.00,VWS V14.01,2013-01-08 11:35:00,
2013-01-08 06:44:00,32.9,23.9,30.35,SSW,195,1.0,6.0,69,0.00,,,0.00,VWS V14.01,2013-01-08 11:44:00,
2013-01-08 06:50:00,32.8,23.8,30.35,SSW,195,0.0,6.0,69,0.00,,,0.00,VWS V14.01,2013-01-08 11:50:00,
2013-01-08 06:55:00,32.7,24.0,30.35,SSW,195,0.0,6.0,70,0.00,,,0.00,VWS V14.01,2013-01-08 11:55:00,
2013-01-08 07:00:00,32.5,23.8,30.35,SSW,195,0.0,6.0,70,0.00,,,0.00,VWS V14.01,2013-01-08 12:00:00,
2013-01-08 07:05:00,32.4,23.7,30.36,SSW,195,0.0,6.0,70,0.00,,,0.00,VWS V14.01,2013-01-08 12:05:00,
2013-01-08 07:10:00,31.9,23.6,30.36,SSW,195,1.0,6.0,71,0.00,,,0.00,VWS V14.01,2013-01-08 12:10:00,
2013-01-08 07:15:00,31.8,23.5,30.36,SSW,195,1.0,6.0,71,0.00,,,0.00,VWS V14.01,2013-01-08 12:15:00,
2013-01-08 07:20:00,31.5,23.5,30.36,SSW,195,0.0,6.0,72,0.00,,,0.00,VWS V14.01,2013-01-08 12:20:00,
2013-01-08 07:25:00,31.3,23.7,30.36,SSW,195,1.0,6.0,73,0.00,,,0.00,VWS V14.01,2013-01-08 12:25:00,
2013-01-08 07:30:00,31.0,23.4,30.36,SSW,195,0.0,6.0,73,0.00,,,0.00,VWS V14.01,2013-01-08 12:30:00,
2013-01-08 07:35:00,30.9,23.6,30.37,SSW,195,0.0,6.0,74,0.00,,,0.00,VWS V14.01,2013-01-08 12:35:00,
2013-01-08 07:40:00,30.9,23.6,30.37,SSW,195,2.0,6.0,74,0.00,,,0.00,VWS V14.01,2013-01-08 12:40:00,
2013-01-08 07:45:00,30.9,23.6,30.37,SSW,195,0.0,6.0,74,0.00,,,0.00,VWS V14.01,2013-01-08 12:45:00,
2013-01-08 07:50:00,30.9,23.6,30.37,SSW,195,0.0,6.0,74,0.00,,,0.00,VWS V14.01,2013-01-08 12:50:00,
2013-01-08 07:55:00,30.9,23.6,30.37,SSW,195,1.0,6.0,74,0.00,,,0.00,VWS V14.01,2013-01-08 12:55:00,
2013-01-08 08:00:00,30.9,23.6,30.37,SSW,195,0.0,6.0,74,0.00,,,0.00,VWS V14.01,2013-01-08 13:00:00,
2013-01-08 08:05:00,30.9,23.6,30.38,SSW,195,1.0,6.0,74,0.00,,,0.00,VWS V14.01,2013-01-08 13:05:00,
2013-01-08 08:10:00,30.9,23.6,30.38,SSW,195,0.0,6.0,74,0.00,,,0.00,VWS V14.01,2013-01-08 13:10:00,
2013-01-08 08:15:00,30.9,23.6,30.38,SSW,195,0.0,6.0,74,0.00,,,0.00,VWS V14.01,2013-01-08 13:15:00,
2013-01-08 08:20:00,31.0,23.7,30.38,SSW,195,0.0,6.0,74,0.00,,,0.00,VWS V14.01,2013-01-08 13:20:00,
2013-01-08 08:25:00,31.3,24.0,30.38,SSW,195,0.0,6.0,74,0.00,,,0.00,VWS V14.01,2013-01-08 13:25:00,
2013-01-08 08:30:00,31.5,24.2,30.38,SSW,195,0.0,6.0,74,0.00,,,0.00,VWS V14.01,2013-01-08 13:30:00,
2013-01-08 08:35:00,31.8,24.1,30.39,SSW,195,1.0,6.0,73,0.00,,,0.00,VWS V14.01,2013-01-08 13:35:00,
2013-01-08 08:40:00,31.9,24.2,30.39,SSW,195,0.0,6.0,73,0.00,,,0.00,VWS V14.01,2013-01-08 13:40:00,
2013-01-08 08:45:00,32.1,24.4,30.39,SSW,195,0.0,6.0,73,0.00,,,0.00,VWS V14.01,2013-01-08 13:45:00,
2013-01-08 08:50:00,32.2,24.5,30.40,SSW,195,0.0,6.0,73,0.00,,,0.00,VWS V14.01,2013-01-08 13:50:00,
2013-01-08 08:55:00,32.5,24.5,30.40,SSW,195,0.0,6.0,72,0.00,,,0.00,VWS V14.01,2013-01-08 13:55:00,
2013-01-08 09:00:00,32.9,24.9,30.40,SSW,195,0.0,6.0,72,0.00,,,0.00,VWS V14.01,2013-01-08 14:00:00,
2013-01-08 09:05:00,33.4,25.0,30.40,SSW,195,1.0,6.0,71,0.00,,,0.00,VWS V14.01,2013-01-08 14:05:00,
2013-01-08 09:10:00,33.7,25.3,30.40,SSW,195,1.0,6.0,71,0.00,,,0.00,VWS V14.01,2013-01-08 14:10:00,
2013-01-08 09:15:00,34.0,25.3,30.40,SSW,195,0.0,6.0,70,0.00,,,0.00,VWS V14.01,2013-01-08 14:15:00,
2013-01-08 09:20:00,34.3,25.5,30.40,SSW,195,0.0,6.0,70,0.00,,,0.00,VWS V14.01,2013-01-08 14:20:00,
2013-01-08 09:25:00,34.7,25.6,30.40,SSW,195,0.0,6.0,69,0.00,,,0.00,VWS V14.01,2013-01-08 14:25:00,
2013-01-08 09:30:00,35.0,25.5,30.40,SSW,195,2.0,6.0,68,0.00,,,0.00,VWS V14.01,2013-01-08 14:30:00,
2013-01-08 09:35:00,35.5,26.0,30.41,SSE,161,1.0,6.0,68,0.00,,,0.00,VWS V14.01,2013-01-08 14:35:00,
2013-01-08 09:40:00,35.9,26.4,30.41,ESE,122,1.0,6.0,68,0.00,,,0.00,VWS V14.01,2013-01-08 14:40:00,
2013-01-08 09:45:00,36.5,26.6,30.41,South,172,0.0,6.0,67,0.00,,,0.00,VWS V14.01,2013-01-08 14:45:00,
2013-01-08 09:50:00,37.0,26.7,30.41,SE,134,2.0,6.0,66,0.00,,,0.00,VWS V14.01,2013-01-08 14:50:00,
2013-01-08 09:55:00,37.5,26.8,30.41,SE,131,2.0,6.0,65,0.00,,,0.00,VWS V14.01,2013-01-08 14:55:00,
2013-01-08 10:00:00,37.8,27.1,30.41,SSE,159,1.0,6.0,65,0.00,,,0.00,VWS V14.01,2013-01-08 15:00:00,
2013-01-08 10:05:00,38.0,26.9,30.41,SSE,165,3.0,6.0,64,0.00,,,0.00,VWS V14.01,2013-01-08 15:05:00,
2013-01-08 10:10:00,38.6,27.1,30.41,SSE,150,5.0,6.0,63,0.00,,,0.00,VWS V14.01,2013-01-08 15:10:00,
2013-01-08 10:15:00,38.9,27.0,30.41,SE,142,2.0,6.0,62,0.00,,,0.00,VWS V14.01,2013-01-08 15:15:00,
2013-01-08 10:20:00,39.5,27.2,30.41,South,171,2.0,6.0,61,0.00,,,0.00,VWS V14.01,2013-01-08 15:20:00,
2013-01-08 10:25:00,39.9,27.2,30.41,SSE,153,2.0,6.0,60,0.00,,,0.00,VWS V14.01,2013-01-08 15:25:00,
2013-01-08 10:30:00,40.5,27.7,30.41,SE,143,1.0,6.0,60,0.00,,,0.00,VWS V14.01,2013-01-08 15:30:00,
2013-01-08 10:36:00,41.2,28.0,30.41,SSE,155,0.0,6.0,59,0.00,,,0.00,VWS V14.01,2013-01-08 15:36:00,
2013-01-08 10:41:00,41.8,28.1,30.41,SSW,193,0.0,6.0,58,0.00,,,0.00,VWS V14.01,2013-01-08 15:41:00,
2013-01-08 10:46:00,42.2,28.5,30.41,South,169,1.0,6.0,58,0.00,,,0.00,VWS V14.01,2013-01-08 15:46:00,
2013-01-08 10:51:00,42.9,28.3,30.41,SE,143,2.0,6.0,56,0.00,,,0.00,VWS V14.01,2013-01-08 15:51:00,
2013-01-08 10:56:00,43.5,28.9,30.41,SSE,156,4.0,6.0,56,0.00,,,0.00,VWS V14.01,2013-01-08 15:56:00,
2013-01-08 11:01:00,43.9,28.4,30.41,SE,143,5.0,6.0,54,0.00,,,0.00,VWS V14.01,2013-01-08 16:01:00,
2013-01-08 11:06:00,44.5,28.0,30.40,SSW,206,3.0,6.0,52,0.00,,,0.00,VWS V14.01,2013-01-08 16:06:00,
2013-01-08 11:11:00,44.9,27.9,30.40,South,180,3.0,6.0,51,0.00,,,0.00,VWS V14.01,2013-01-08 16:11:00,
2013-01-08 11:16:00,44.9,28.4,30.40,South,170,3.0,6.0,52,0.00,,,0.00,VWS V14.01,2013-01-08 16:16:00,
2013-01-08 11:21:00,45.1,28.5,30.40,SSW,200,2.0,6.0,52,0.00,,,0.00,VWS V14.01,2013-01-08 16:21:00,
2013-01-08 11:26:00,45.5,28.4,30.40,SSE,164,3.0,6.0,51,0.00,,,0.00,VWS V14.01,2013-01-08 16:26:00,
2013-01-08 11:31:00,46.0,28.9,30.40,SE,140,6.0,6.0,51,0.00,,,0.00,VWS V14.01,2013-01-08 16:31:00,
2013-01-08 11:36:00,46.8,29.2,30.39,SSW,197,5.0,6.0,50,0.00,,,0.00,VWS V14.01,2013-01-08 16:36:00,
2013-01-08 11:41:00,47.3,29.1,30.39,South,189,9.0,9.0,49,0.00,,,0.00,VWS V14.01,2013-01-08 16:41:00,
2013-01-08 11:46:00,47.6,29.4,30.39,South,175,3.0,6.0,49,0.00,,,0.00,VWS V14.01,2013-01-08 16:46:00,
2013-01-08 11:51:00,47.7,29.0,30.38,South,182,3.0,6.0,48,0.00,,,0.00,VWS V14.01,2013-01-08 16:51:00,
2013-01-08 11:56:00,47.4,28.7,30.38,South,185,3.0,6.0,48,0.00,,,0.00,VWS V14.01,2013-01-08 16:56:00,
2013-01-08 12:01:00,47.7,29.5,30.38,SSE,150,6.0,6.0,49,0.00,,,0.00,VWS V14.01,2013-01-08 17:01:00,
2013-01-08 12:06:00,48.2,29.5,30.37,SSW,211,6.0,6.0,48,0.00,,,0.00,VWS V14.01,2013-01-08 17:06:00,
2013-01-08 12:11:00,48.8,29.5,30.37,SSW,204,7.0,7.0,47,0.00,,,0.00,VWS V14.01,2013-01-08 17:11:00,
2013-01-08 12:16:00,48.8,30.0,30.37,SSW,209,4.0,6.0,48,0.00,,,0.00,VWS V14.01,2013-01-08 17:16:00,
2013-01-08 12:21:00,49.4,30.0,30.36,SSE,157,4.0,6.0,47,0.00,,,0.00,VWS V14.01,2013-01-08 17:21:00,
2013-01-08 12:26:00,49.5,30.1,30.36,SSE,157,5.0,6.0,47,0.00,,,0.00,VWS V14.01,2013-01-08 17:26:00,
2013-01-08 12:31:00,49.8,29.9,30.36,SSW,208,5.0,6.0,46,0.00,,,0.00,VWS V14.01,2013-01-08 17:31:00,
2013-01-08 12:36:00,49.9,30.5,30.35,South,188,6.0,6.0,47,0.00,,,0.00,VWS V14.01,2013-01-08 17:36:00,
2013-01-08 12:41:00,49.9,30.0,30.35,SSW,212,6.0,6.0,46,0.00,,,0.00,VWS V14.01,2013-01-08 17:41:00,
2013-01-08 12:46:00,50.1,30.1,30.35,South,185,3.0,6.0,46,0.00,,,0.00,VWS V14.01,2013-01-08 17:46:00,
2013-01-08 12:51:00,49.9,30.5,30.35,SSW,196,6.0,6.0,47,0.00,,,0.00,VWS V14.01,2013-01-08 17:51:00,
2013-01-08 12:56:00,49.6,30.2,30.35,SSW,196,3.0,6.0,47,0.00,,,0.00,VWS V14.01,2013-01-08 17:56:00,
2013-01-08 13:01:00,49.5,30.1,30.35,SSW,213,4.0,6.0,47,0.00,,,0.00,VWS V14.01,2013-01-08 18:01:00,
2013-01-08 13:06:00,49.5,30.1,30.34,SSW,212,4.0,6.0,47,0.00,,,0.00,VWS V14.01,2013-01-08 18:06:00,
2013-01-08 13:11:00,49.2,30.4,30.34,SW,219,3.0,6.0,48,0.00,,,0.00,VWS V14.01,2013-01-08 18:11:00,
2013-01-08 13:16:00,48.9,30.1,30.34,SSW,193,1.0,6.0,48,0.00,,,0.00,VWS V14.01,2013-01-08 18:16:00,
2013-01-08 13:21:00,49.1,30.8,30.33,SSW,210,5.0,6.0,49,0.00,,,0.00,VWS V14.01,2013-01-08 18:21:00,
2013-01-08 13:26:00,50.1,30.7,30.33,SSE,156,2.0,6.0,47,0.00,,,0.00,VWS V14.01,2013-01-08 18:26:00,
2013-01-08 13:31:00,51.0,31.0,30.33,SSW,204,3.0,6.0,46,0.00,,,0.00,VWS V14.01,2013-01-08 18:31:00,
2013-01-08 13:36:00,51.1,30.5,30.33,South,183,2.0,6.0,45,0.00,,,0.00,VWS V14.01,2013-01-08 18:36:00,
2013-01-08 13:41:00,51.3,31.2,30.33,SW,230,1.0,6.0,46,0.00,,,0.00,VWS V14.01,2013-01-08 18:41:00,
2013-01-08 13:46:00,51.4,30.8,30.33,SSW,198,3.0,6.0,45,0.00,,,0.00,VWS V14.01,2013-01-08 18:46:00,
2013-01-08 13:51:00,51.4,30.8,30.33,SE,140,4.0,6.0,45,0.00,,,0.00,VWS V14.01,2013-01-08 18:51:00,
2013-01-08 13:56:00,51.4,30.8,30.33,South,190,3.0,6.0,45,0.00,,,0.00,VWS V14.01,2013-01-08 18:56:00,
2013-01-08 14:01:00,51.4,30.8,30.33,SSE,165,3.0,6.0,45,0.00,,,0.00,VWS V14.01,2013-01-08 19:01:00,
2013-01-08 14:06:00,51.7,30.5,30.32,SSW,204,5.0,6.0,44,0.00,,,0.00,VWS V14.01,2013-01-08 19:06:00,
2013-01-08 14:11:00,51.4,30.8,30.32,SW,227,4.0,6.0,45,0.00,,,0.00,VWS V14.01,2013-01-08 19:11:00,
2013-01-08 14:16:00,51.7,31.1,30.32,SSW,205,6.0,6.0,45,0.00,,,0.00,VWS V14.01,2013-01-08 19:16:00,
2013-01-08 14:21:00,51.7,31.1,30.32,South,189,8.0,8.0,45,0.00,,,0.00,VWS V14.01,2013-01-08 19:21:00,
2013-01-08 14:26:00,51.9,31.2,30.32,South,169,4.0,6.0,45,0.00,,,0.00,VWS V14.01,2013-01-08 19:26:00,
2013-01-08 14:31:00,52.0,31.9,30.32,SSW,211,7.0,7.0,46,0.00,,,0.00,VWS V14.01,2013-01-08 19:31:00,
2013-01-08 14:36:00,52.0,31.3,30.32,South,186,2.0,6.0,45,0.00,,,0.00,VWS V14.01,2013-01-08 19:36:00,
2013-01-08 14:41:00,52.2,31.0,30.32,South,191,3.0,6.0,44,0.00,,,0.00,VWS V14.01,2013-01-08 19:41:00,
2013-01-08 14:46:00,52.2,31.5,30.32,South,180,3.0,6.0,45,0.00,,,0.00,VWS V14.01,2013-01-08 19:46:00,
2013-01-08 14:51:00,52.3,31.0,30.32,SSE,159,3.0,6.0,44,0.00,,,0.00,VWS V14.01,2013-01-08 19:51:00,
2013-01-08 14:56:00,52.3,31.0,30.32,South,174,3.0,6.0,44,0.00,,,0.00,VWS V14.01,2013-01-08 19:56:00,
2013-01-08 15:01:00,52.2,31.0,30.32,SSW,202,4.0,6.0,44,0.00,,,0.00,VWS V14.01,2013-01-08 20:01:00,
2013-01-08 15:06:00,52.5,31.2,30.32,SW,221,6.0,6.0,44,0.00,,,0.00,VWS V14.01,2013-01-08 20:06:00,
2013-01-08 15:11:00,52.5,31.2,30.32,South,172,0.0,6.0,44,0.00,,,0.00,VWS V14.01,2013-01-08 20:11:00,
2013-01-08 15:16:00,52.8,31.5,30.32,SSW,211,2.0,6.0,44,0.00,,,0.00,VWS V14.01,2013-01-08 20:16:00,
2013-01-08 15:21:00,52.9,31.6,30.32,SW,227,4.0,6.0,44,0.00,,,0.00,VWS V14.01,2013-01-08 20:21:00,
2013-01-08 15:26:00,52.9,31.6,30.32,South,184,2.0,6.0,44,0.00,,,0.00,VWS V14.01,2013-01-08 20:26:00,
2013-01-08 15:31:00,52.8,31.5,30.32,South,180,1.0,6.0,44,0.00,,,0.00,VWS V14.01,2013-01-08 20:31:00,
2013-01-08 15:36:00,52.8,31.5,30.31,SSE,153,2.0,6.0,44,0.00,,,0.00,VWS V14.01,2013-01-08 20:36:00,
2013-01-08 15:41:00,52.6,31.3,30.31,SSW,212,4.0,6.0,44,0.00,,,0.00,VWS V14.01,2013-01-08 20:41:00,
2013-01-08 15:47:00,52.6,31.3,30.31,South,188,2.0,6.0,44,0.00,,,0.00,VWS V14.01,2013-01-08 20:47:00,
2013-01-08 15:52:00,52.6,31.3,30.31,South,186,0.0,6.0,44,0.00,,,0.00,VWS V14.01,2013-01-08 20:52:00,
2013-01-08 15:57:00,52.5,31.2,30.31,SE,144,0.0,6.0,44,0.00,,,0.00,VWS V14.01,2013-01-08 20:57:00,
2013-01-08 16:02:00,52.3,31.0,30.31,SSE,147,3.0,6.0,44,0.00,,,0.00,VWS V14.01,2013-01-08 21:02:00,
2013-01-08 16:07:00,52.6,31.3,30.31,South,173,2.0,6.0,44,0.00,,,0.00,VWS V14.01,2013-01-08 21:07:00,
2013-01-08 16:12:00,52.6,31.3,30.31,SSW,198,0.0,6.0,44,0.00,,,0.00,VWS V14.01,2013-01-08 21:12:00,
2013-01-08 16:17:00,52.6,31.3,30.31,SW,226,3.0,6.0,44,0.00,,,0.00,VWS V14.01,2013-01-08 21:17:00,
2013-01-08 16:22:00,52.6,31.3,30.31,SSW,209,2.0,6.0,44,0.00,,,0.00,VWS V14.01,2013-01-08 21:22:00,
2013-01-08 16:27:00,52.6,31.3,30.31,SSW,205,0.0,6.0,44,0.00,,,0.00,VWS V14.01,2013-01-08 21:27:00,
2013-01-08 16:32:00,52.9,31.0,30.31,SSW,210,0.0,6.0,43,0.00,,,0.00,VWS V14.01,2013-01-08 21:32:00,
2013-01-08 16:37:00,53.2,31.3,30.31,South,190,6.0,6.0,43,0.00,,,0.00,VWS V14.01,2013-01-08 21:37:00,
2013-01-08 16:42:00,53.2,31.3,30.31,SSE,151,0.0,6.0,43,0.00,,,0.00,VWS V14.01,2013-01-08 21:42:00,
2013-01-08 16:47:00,53.3,31.4,30.31,SSW,202,2.0,6.0,43,0.00,,,0.00,VWS V14.01,2013-01-08 21:47:00,
2013-01-08 16:52:00,53.1,31.8,30.30,South,180,0.0,6.0,44,0.00,,,0.00,VWS V14.01,2013-01-08 21:52:00,
2013-01-08 16:57:00,52.8,31.5,30.30,SW,215,1.0,6.0,44,0.00,,,0.00,VWS V14.01,2013-01-08 21:57:00,
2013-01-08 17:02:00,52.5,31.8,30.30,SSW,192,0.0,6.0,45,0.00,,,0.00,VWS V14.01,2013-01-08 22:02:00,
2013-01-08 17:07:00,52.2,31.5,30.30,SSW,208,0.0,6.0,45,0.00,,,0.00,VWS V14.01,2013-01-08 22:07:00,
2013-01-08 17:12:00,51.9,31.8,30.30,SSW,192,0.0,6.0,46,0.00,,,0.00,VWS V14.01,2013-01-08 22:12:00,
2013-01-08 17:17:00,51.6,31.5,30.30,SSW,192,0.0,6.0,46,0.00,,,0.00,VWS V14.01,2013-01-08 22:17:00,
2013-01-08 17:22:00,51.3,31.8,30.32,South,190,0.0,6.0,47,0.00,,,0.00,VWS V14.01,2013-01-08 22:22:00,
2013-01-08 17:27:00,51.0,31.5,30.32,South,190,0.0,6.0,47,0.00,,,0.00,VWS V14.01,2013-01-08 22:27:00,
2013-01-08 17:32:00,50.5,31.6,30.32,South,190,0.0,6.0,48,0.00,,,0.00,VWS V14.01,2013-01-08 22:32:00,
2013-01-08 17:37:00,50.2,31.8,30.30,South,190,0.0,6.0,49,0.00,,,0.00,VWS V14.01,2013-01-08 22:37:00,
2013-01-08 17:42:00,49.8,31.4,30.30,South,190,0.0,6.0,49,0.00,,,0.00,VWS V14.01,2013-01-08 22:42:00,
2013-01-08 17:47:00,49.5,31.6,30.30,South,190,0.0,6.0,50,0.00,,,0.00,VWS V14.01,2013-01-08 22:47:00,
2013-01-08 17:52:00,49.1,31.3,30.30,South,190,0.0,6.0,50,0.00,,,0.00,VWS V14.01,2013-01-08 22:52:00,
2013-01-08 17:57:00,48.8,31.5,30.30,South,190,0.0,6.0,51,0.00,,,0.00,VWS V14.01,2013-01-08 22:57:00,
2013-01-08 18:02:00,48.3,31.5,30.30,South,190,0.0,6.0,52,0.00,,,0.00,VWS V14.01,2013-01-08 23:02:00,
2013-01-08 18:07:00,47.9,31.6,30.30,South,190,0.0,6.0,53,0.00,,,0.00,VWS V14.01,2013-01-08 23:07:00,
2013-01-08 18:12:00,47.6,31.3,30.30,South,190,0.0,6.0,53,0.00,,,0.00,VWS V14.01,2013-01-08 23:12:00,
2013-01-08 18:17:00,47.3,31.5,30.30,South,190,0.0,6.0,54,0.00,,,0.00,VWS V14.01,2013-01-08 23:17:00,
2013-01-08 18:22:00,47.1,31.3,30.30,South,190,0.0,6.0,54,0.00,,,0.00,VWS V14.01,2013-01-08 23:22:00,
2013-01-08 18:27:00,47.0,31.2,30.30,South,190,0.0,6.0,54,0.00,,,0.00,VWS V14.01,2013-01-08 23:27:00,
2013-01-08 18:32:00,47.0,31.7,30.30,South,190,0.0,6.0,55,0.00,,,0.00,VWS V14.01,2013-01-08 23:32:00,
2013-01-08 18:37:00,46.8,31.5,30.30,South,190,0.0,6.0,55,0.00,,,0.00,VWS V14.01,2013-01-08 23:37:00,
2013-01-08 18:42:00,46.8,31.5,30.30,South,190,0.0,6.0,55,0.00,,,0.00,VWS V14.01,2013-01-08 23:42:00,
2013-01-08 18:47:00,46.8,31.5,30.30,South,190,0.0,6.0,55,0.00,,,0.00,VWS V14.01,2013-01-08 23:47:00,
2013-01-08 18:52:00,46.8,31.5,30.31,South,190,0.0,6.0,55,0.00,,,0.00,VWS V14.01,2013-01-08 23:52:00,
2013-01-08 18:57:00,46.7,31.4,30.31,South,190,0.0,6.0,55,0.00,,,0.00,VWS V14.01,2013-01-08 23:57:00,
2013-01-08 19:02:00,46.4,31.6,30.31,South,190,0.0,6.0,56,0.00,,,0.00,VWS V14.01,2013-01-09 00:02:00,
2013-01-08 19:07:00,46.2,31.4,30.31,South,190,0.0,6.0,56,0.00,,,0.00,VWS V14.01,2013-01-09 00:07:00,
2013-01-08 19:12:00,46.0,31.2,30.31,South,190,0.0,6.0,56,0.00,,,0.00,VWS V14.01,2013-01-09 00:12:00,
2013-01-08 19:17:00,45.8,31.5,30.31,South,190,0.0,6.0,57,0.00,,,0.00,VWS V14.01,2013-01-09 00:17:00,
2013-01-08 19:22:00,45.7,31.4,30.30,South,190,0.0,6.0,57,0.00,,,0.00,VWS V14.01,2013-01-09 00:22:00,
2013-01-08 19:27:00,45.7,31.4,30.30,South,190,0.0,6.0,57,0.00,,,0.00,VWS V14.01,2013-01-09 00:27:00,
2013-01-08 19:32:00,45.5,31.2,30.30,South,190,0.0,6.0,57,0.00,,,0.00,VWS V14.01,2013-01-09 00:32:00,
2013-01-08 19:37:00,44.8,31.4,30.31,South,190,0.0,6.0,59,0.00,,,0.00,VWS V14.01,2013-01-09 00:37:00,
2013-01-08 19:42:00,44.2,31.2,30.31,South,190,0.0,6.0,60,0.00,,,0.00,VWS V14.01,2013-01-09 00:42:00,
2013-01-08 19:47:00,44.1,31.1,30.31,South,190,0.0,6.0,60,0.00,,,0.00,VWS V14.01,2013-01-09 00:47:00,
2013-01-08 19:52:00,44.2,31.2,30.31,South,190,0.0,6.0,60,0.00,,,0.00,VWS V14.01,2013-01-09 00:52:00,
2013-01-08 19:57:00,44.3,31.3,30.31,South,190,0.0,6.0,60,0.00,,,0.00,VWS V14.01,2013-01-09 00:57:00,
2013-01-08 20:02:00,44.1,31.1,30.31,South,190,0.0,6.0,60,0.00,,,0.00,VWS V14.01,2013-01-09 01:02:00,
2013-01-08 20:07:00,43.8,31.2,30.31,South,190,0.0,6.0,61,0.00,,,0.00,VWS V14.01,2013-01-09 01:07:00,
2013-01-08 20:12:00,43.6,31.5,30.31,South,190,1.0,6.0,62,0.00,,,0.00,VWS V14.01,2013-01-09 01:12:00,
2013-01-08 20:17:00,43.5,31.4,30.31,South,190,0.0,6.0,62,0.00,,,0.00,VWS V14.01,2013-01-09 01:17:00,
2013-01-08 20:22:00,43.6,31.5,30.30,South,190,0.0,6.0,62,0.00,,,0.00,VWS V14.01,2013-01-09 01:22:00,
2013-01-08 20:27:00,43.6,31.5,30.30,South,190,0.0,6.0,62,0.00,,,0.00,VWS V14.01,2013-01-09 01:27:00,
2013-01-08 20:32:00,43.5,31.4,30.30,South,190,0.0,6.0,62,0.00,,,0.00,VWS V14.01,2013-01-09 01:32:00,
2013-01-08 20:37:00,43.5,31.4,30.30,South,190,0.0,6.0,62,0.00,,,0.00,VWS V14.01,2013-01-09 01:37:00,
2013-01-08 20:42:00,43.5,31.4,30.30,South,190,0.0,6.0,62,0.00,,,0.00,VWS V14.01,2013-01-09 01:42:00,
2013-01-08 20:48:00,43.5,31.4,30.30,South,190,0.0,6.0,62,0.00,,,0.00,VWS V14.01,2013-01-09 01:48:00,
2013-01-08 20:53:00,43.5,31.4,30.30,South,190,0.0,6.0,62,0.00,,,0.00,VWS V14.01,2013-01-09 01:53:00,
2013-01-08 20:58:00,43.5,31.4,30.30,South,190,0.0,6.0,62,0.00,,,0.00,VWS V14.01,2013-01-09 01:58:00,
2013-01-08 21:03:00,43.3,31.2,30.30,South,190,0.0,6.0,62,0.00,,,0.00,VWS V14.01,2013-01-09 02:03:00,
2013-01-08 21:08:00,43.3,31.2,30.30,South,190,0.0,6.0,62,0.00,,,0.00,VWS V14.01,2013-01-09 02:08:00,
2013-01-08 21:13:00,43.2,31.1,30.30,South,190,0.0,6.0,62,0.00,,,0.00,VWS V14.01,2013-01-09 02:13:00,
2013-01-08 21:18:00,43.2,31.1,30.30,South,190,0.0,6.0,62,0.00,,,0.00,VWS V14.01,2013-01-09 02:18:00,
2013-01-08 21:23:00,43.3,31.2,30.29,South,190,0.0,6.0,62,0.00,,,0.00,VWS V14.01,2013-01-09 02:23:00,
2013-01-08 21:28:00,43.3,31.2,30.29,South,190,0.0,6.0,62,0.00,,,0.00,VWS V14.01,2013-01-09 02:28:00,
2013-01-08 21:33:00,43.3,31.2,30.29,South,190,0.0,6.0,62,0.00,,,0.00,VWS V14.01,2013-01-09 02:33:00,
2013-01-08 21:38:00,43.2,31.5,30.30,South,190,0.0,6.0,63,0.00,,,0.00,VWS V14.01,2013-01-09 02:38:00,
2013-01-08 21:43:00,43.2,31.1,30.30,South,190,0.0,6.0,62,0.00,,,0.00,VWS V14.01,2013-01-09 02:43:00,
2013-01-08 21:48:00,43.3,31.2,30.30,South,190,0.0,6.0,62,0.00,,,0.00,VWS V14.01,2013-01-09 02:48:00,
2013-01-08 21:53:00,43.3,31.2,30.30,South,190,0.0,6.0,62,0.00,,,0.00,VWS V14.01,2013-01-09 02:53:00,
2013-01-08 21:58:00,43.3,31.2,30.30,South,190,0.0,6.0,62,0.00,,,0.00,VWS V14.01,2013-01-09 02:58:00,
2013-01-08 22:03:00,43.3,31.2,30.30,South,190,0.0,6.0,62,0.00,,,0.00,VWS V14.01,2013-01-09 03:03:00,
2013-01-08 22:08:00,43.5,31.4,30.30,South,190,0.0,6.0,62,0.00,,,0.00,VWS V14.01,2013-01-09 03:08:00,
2013-01-08 22:13:00,43.5,31.4,30.30,South,190,0.0,6.0,62,0.00,,,0.00,VWS V14.01,2013-01-09 03:13:00,
2013-01-08 22:18:00,43.6,31.5,30.30,South,190,0.0,6.0,62,0.00,,,0.00,VWS V14.01,2013-01-09 03:18:00,
2013-01-08 22:23:00,43.6,31.5,30.30,South,190,0.0,6.0,62,0.00,,,0.00,VWS V14.01,2013-01-09 03:23:00,
2013-01-08 22:28:00,43.5,31.4,30.30,South,190,0.0,6.0,62,0.00,,,0.00,VWS V14.01,2013-01-09 03:28:00,
2013-01-08 22:33:00,43.5,31.4,30.30,South,190,0.0,6.0,62,0.00,,,0.00,VWS V14.01,2013-01-09 03:33:00,
2013-01-08 22:38:00,43.3,31.2,30.29,South,190,0.0,6.0,62,0.00,,,0.00,VWS V14.01,2013-01-09 03:38:00,
2013-01-08 22:43:00,43.2,31.1,30.29,South,190,0.0,6.0,62,0.00,,,0.00,VWS V14.01,2013-01-09 03:43:00,
2013-01-08 22:48:00,43.3,31.2,30.29,South,190,0.0,6.0,62,0.00,,,0.00,VWS V14.01,2013-01-09 03:48:00,
2013-01-08 22:53:00,43.3,31.2,30.29,South,189,0.0,6.0,62,0.00,,,0.00,VWS V14.01,2013-01-09 03:53:00,
2013-01-08 22:58:00,43.3,31.2,30.29,South,188,0.0,6.0,62,0.00,,,0.00,VWS V14.01,2013-01-09 03:58:00,
2013-01-08 23:00:00,43.5,33.7,30.30,SE,144,0.0,6.0,68,0.00,,,0.00,VWS V14.01,2013-01-09 04:00:00,
2013-01-08 23:03:00,43.5,31.8,30.29,SSE,158,1.0,6.0,63,0.00,,,0.00,VWS V14.01,2013-01-09 04:03:00,
2013-01-08 23:04:00,43.3,33.8,30.30,SE,144,0.0,6.0,69,0.00,,,0.00,VWS V14.01,2013-01-09 04:04:00,
2013-01-08 23:08:00,43.5,31.8,30.30,SE,143,1.0,6.0,63,0.00,,,0.00,VWS V14.01,2013-01-09 04:08:00,
2013-01-08 23:09:00,43.3,33.8,30.30,SE,144,0.0,6.0,69,0.00,,,0.00,VWS V14.01,2013-01-09 04:09:00,
2013-01-08 23:10:00,43.3,33.8,30.30,SE,144,0.0,6.0,69,0.00,,,0.00,VWS V14.01,2013-01-09 04:10:00,
2013-01-08 23:13:00,43.5,31.8,30.30,SE,142,0.0,6.0,63,0.00,,,0.00,VWS V14.01,2013-01-09 04:13:00,
2013-01-08 23:14:00,43.2,33.7,30.30,SE,144,0.0,6.0,69,0.00,,,0.00,VWS V14.01,2013-01-09 04:14:00,
2013-01-08 23:18:00,43.5,32.2,30.30,SE,142,0.0,6.0,64,0.00,,,0.00,VWS V14.01,2013-01-09 04:18:00,
2013-01-08 23:19:00,43.2,34.1,30.29,SE,144,0.0,6.0,70,0.00,,,0.00,VWS V14.01,2013-01-09 04:19:00,
2013-01-08 23:20:00,43.2,34.1,30.29,SE,144,0.0,6.0,70,0.00,,,0.00,VWS V14.01,2013-01-09 04:20:00,
2013-01-08 23:23:00,43.5,32.2,30.30,SE,142,0.0,6.0,64,0.00,,,0.00,VWS V14.01,2013-01-09 04:23:00,
2013-01-08 23:24:00,43.1,34.0,30.29,SE,144,0.0,6.0,70,0.00,,,0.00,VWS V14.01,2013-01-09 04:24:00,
2013-01-08 23:28:00,43.6,32.6,30.30,SE,142,0.0,6.0,65,0.00,,,0.00,VWS V14.01,2013-01-09 04:28:00,
2013-01-08 23:29:00,42.9,34.2,30.29,SE,144,0.0,6.0,71,0.00,,,0.00,VWS V14.01,2013-01-09 04:29:00,
2013-01-08 23:30:00,42.9,34.2,30.29,SE,144,0.0,6.0,71,0.00,,,0.00,VWS V14.01,2013-01-09 04:30:00,
2013-01-08 23:33:00,43.6,32.6,30.30,SE,142,2.0,6.0,65,0.00,,,0.00,VWS V14.01,2013-01-09 04:33:00,
2013-01-08 23:34:00,42.8,34.1,30.29,SE,144,0.0,6.0,71,0.00,,,0.00,VWS V14.01,2013-01-09 04:34:00,
2013-01-08 23:38:00,43.6,33.0,30.29,SE,142,2.0,6.0,66,0.00,,,0.00,VWS V14.01,2013-01-09 04:38:00,
2013-01-08 23:39:00,42.8,34.4,30.29,SE,144,0.0,6.0,72,0.00,,,0.00,VWS V14.01,2013-01-09 04:39:00,
2013-01-08 23:40:00,42.9,34.5,30.29,SE,144,0.0,6.0,72,0.00,,,0.00,VWS V14.01,2013-01-09 04:40:00,
2013-01-08 23:43:00,43.5,32.9,30.29,SE,139,1.0,6.0,66,0.00,,,0.00,VWS V14.01,2013-01-09 04:43:00,
2013-01-08 23:44:00,42.9,34.5,30.29,SE,144,0.0,6.0,72,0.00,,,0.00,VWS V14.01,2013-01-09 04:44:00,
2013-01-08 23:48:00,43.5,33.3,30.29,SE,139,0.0,6.0,67,0.00,,,0.00,VWS V14.01,2013-01-09 04:48:00,
2013-01-08 23:49:00,42.9,34.8,30.29,SE,142,2.0,6.0,73,0.00,,,0.00,VWS V14.01,2013-01-09 04:49:00,
2013-01-08 23:50:00,42.9,34.8,30.29,SE,142,0.0,6.0,73,0.00,,,0.00,VWS V14.01,2013-01-09 04:50:00,
2013-01-08 23:53:00,43.5,33.3,30.30,SE,139,0.0,6.0,67,0.00,,,0.00,VWS V14.01,2013-01-09 04:53:00,
2013-01-08 23:54:00,43.1,35.0,30.29,SE,142,0.0,6.0,73,0.00,,,0.00,VWS V14.01,2013-01-09 04:54:00,
2013-01-08 23:58:00,43.5,33.7,30.30,SE,144,0.0,6.0,68,0.00,,,0.00,VWS V14.01,2013-01-09 04:58:00,
2013-01-08 23:59:00,43.1,35.0,30.29,South,175,2.0,6.0,73,0.00,,,0.00,VWS V14.01,2013-01-09 04:59:00,